createdAt,value
2022-12-12T00:01:18.589Z,98129.66
2022-12-12T00:04:22.469Z,98128.72
2022-12-12T00:07:26.290Z,98131.69
2022-12-12T00:10:30.268Z,98140.59
2022-12-12T00:13:35.000Z,98133.53
2022-12-12T00:16:40.369Z,98140.59
2022-12-12T00:19:44.409Z,98142.41
2022-12-12T00:22:48.309Z,98141.59
2022-12-12T00:25:57.110Z,98147.69
2022-12-12T00:29:02.052Z,98157.34
2022-12-12T00:32:07.535Z,98149.41
2022-12-12T00:35:11.798Z,98154.00
2022-12-12T00:38:15.938Z,98153.56
2022-12-12T00:41:20.276Z,98157.47
2022-12-12T00:44:24.030Z,98159.69
2022-12-12T00:47:29.229Z,98159.16
2022-12-12T00:50:33.850Z,98152.66
2022-12-12T00:53:38.036Z,98161.63
2022-12-12T00:56:42.236Z,98168.59
2022-12-12T00:59:46.021Z,98196.03
2022-12-12T01:02:51.395Z,98202.69
2022-12-12T01:05:55.049Z,98192.25
2022-12-12T01:08:58.956Z,98207.38
2022-12-12T01:12:02.716Z,98218.69
2022-12-12T01:15:09.035Z,98217.91
2022-12-12T01:18:14.449Z,98227.53
2022-12-12T01:21:20.005Z,98237.34
2022-12-12T01:24:23.607Z,98242.06
2022-12-12T01:27:27.499Z,98243.84
2022-12-12T01:30:31.337Z,98266.16
2022-12-12T01:33:36.870Z,98267.59
2022-12-12T01:36:40.539Z,98268.06
2022-12-12T01:39:44.138Z,98253.59
2022-12-12T01:42:48.055Z,98261.28
2022-12-12T01:46:42.477Z,98253.63
2022-12-12T01:49:51.396Z,98270.69
2022-12-12T01:52:55.181Z,98263.03
2022-12-12T01:56:00.456Z,98268.25
2022-12-12T01:59:06.995Z,98269.41
2022-12-12T02:02:11.965Z,98278.78
2022-12-12T02:05:25.176Z,98290.66
2022-12-12T02:08:29.654Z,98289.88
2022-12-12T02:11:34.671Z,98291.31
2022-12-12T02:14:42.218Z,98278.47
2022-12-12T02:18:02.235Z,98276.81
2022-12-12T02:21:18.670Z,98285.28
2022-12-12T02:24:56.369Z,98284.97
2022-12-12T02:28:29.673Z,98283.34
2022-12-12T02:31:42.026Z,98285.09
2022-12-12T02:34:51.832Z,98293.25
2022-12-12T02:38:05.371Z,98308.69
2022-12-12T02:41:19.522Z,98312.53
2022-12-12T02:44:30.299Z,98321.31
2022-12-12T02:47:40.308Z,98323.72
2022-12-12T02:50:45.890Z,98327.31
2022-12-12T02:53:49.496Z,98324.38
2022-12-12T02:56:56.377Z,98324.25
2022-12-12T03:00:03.532Z,98323.31
2022-12-12T03:03:47.330Z,98324.06
2022-12-12T03:07:21.516Z,98329.78
2022-12-12T03:10:43.081Z,98327.63
2022-12-12T03:13:54.335Z,98313.41
2022-12-12T03:17:05.770Z,98319.91
2022-12-12T03:20:17.094Z,98336.41
2022-12-12T03:23:25.944Z,98327.41
2022-12-12T03:26:32.770Z,98317.69
2022-12-12T03:29:43.118Z,98313.94
2022-12-12T03:32:53.579Z,98315.16
2022-12-12T03:36:04.704Z,98311.25
2022-12-12T03:39:14.235Z,98318.22
2022-12-12T03:42:24.189Z,98321.66
2022-12-12T03:45:34.087Z,98325.81
2022-12-12T03:48:42.228Z,98325.53
2022-12-12T03:51:53.425Z,98334.38
2022-12-12T03:55:03.771Z,98341.03
2022-12-12T03:58:12.970Z,98334.38
2022-12-12T04:01:19.103Z,98348.34
2022-12-12T04:04:29.996Z,98362.97
2022-12-12T04:07:41.730Z,98361.97
2022-12-12T04:11:06.752Z,98360.97
2022-12-12T04:14:22.856Z,98357.72
2022-12-12T04:17:33.643Z,98356.41
2022-12-12T04:21:01.739Z,98361.28
2022-12-12T04:24:18.360Z,98357.38
2022-12-12T04:27:27.234Z,98360.94
2022-12-12T04:30:33.252Z,98353.13
2022-12-12T04:33:43.934Z,98351.53
2022-12-12T04:36:49.178Z,98352.19
2022-12-12T04:39:57.500Z,98351.84
2022-12-12T04:43:07.236Z,98367.13
2022-12-12T04:46:15.345Z,98375.00
2022-12-12T04:49:23.075Z,98372.72
2022-12-12T04:52:28.057Z,98387.09
2022-12-12T04:55:37.437Z,98381.41
2022-12-12T04:58:42.063Z,98387.91
2022-12-12T05:01:53.432Z,98382.84
2022-12-12T05:05:01.409Z,98392.25
2022-12-12T05:08:09.797Z,98396.81
2022-12-12T05:11:16.356Z,98389.00
2022-12-12T05:14:21.060Z,98394.84
2022-12-12T05:17:29.260Z,98408.88
2022-12-12T05:20:33.255Z,98408.69
2022-12-12T05:23:37.056Z,98417.34
2022-12-12T05:26:42.765Z,98422.53
2022-12-12T05:29:46.529Z,98423.34
2022-12-12T05:32:50.838Z,98421.22
2022-12-12T05:35:54.640Z,98423.00
2022-12-12T05:38:58.421Z,98422.19
2022-12-12T05:42:03.837Z,98428.38
2022-12-12T05:45:09.338Z,98423.19
2022-12-12T05:48:13.195Z,98422.22
2022-12-12T05:51:17.076Z,98429.69
2022-12-12T05:54:21.029Z,98440.59
2022-12-12T05:57:26.378Z,98446.31
2022-12-12T06:00:30.409Z,98436.06
2022-12-12T06:03:34.674Z,98451.34
2022-12-12T06:06:38.756Z,98466.81
2022-12-12T06:09:42.635Z,98473.31
2022-12-12T06:12:47.935Z,98478.53
2022-12-12T06:15:51.780Z,98481.94
2022-12-12T06:18:57.216Z,98493.25
2022-12-12T06:22:01.113Z,98478.78
2022-12-12T06:25:05.455Z,98475.75
2022-12-12T06:28:10.816Z,98497.06
2022-12-12T06:31:15.882Z,98498.34
2022-12-12T06:34:19.857Z,98492.97
2022-12-12T06:37:23.869Z,98494.25
2022-12-12T06:40:27.735Z,98506.00
2022-12-12T06:43:33.055Z,98511.75
2022-12-12T06:46:37.048Z,98502.81
2022-12-12T06:49:40.936Z,98513.88
2022-12-12T06:52:44.770Z,98517.81
2022-12-12T06:55:48.468Z,98512.47
2022-12-12T06:58:54.555Z,98512.88
2022-12-12T07:01:58.835Z,98514.97
2022-12-12T07:05:03.257Z,98514.81
2022-12-12T07:08:07.132Z,98518.84
2022-12-12T07:11:15.038Z,98536.81
2022-12-12T07:14:20.369Z,98536.84
2022-12-12T07:17:24.189Z,98540.66
2022-12-12T07:20:27.990Z,98534.75
2022-12-12T07:23:31.903Z,98544.78
2022-12-12T07:26:35.755Z,98551.00
2022-12-12T07:29:41.157Z,98549.78
2022-12-12T07:32:45.197Z,98546.69
2022-12-12T07:35:49.177Z,98561.19
2022-12-12T07:38:53.009Z,98560.47
2022-12-12T07:41:56.815Z,98559.88
2022-12-12T07:45:02.629Z,98581.56
2022-12-12T07:48:06.724Z,98591.97
2022-12-12T07:51:10.870Z,98585.63
2022-12-12T07:54:14.776Z,98598.66
2022-12-12T07:57:18.625Z,98597.34
2022-12-12T08:00:24.489Z,98599.66
2022-12-12T08:03:28.649Z,98599.81
2022-12-12T08:06:32.592Z,98612.94
2022-12-12T08:09:38.009Z,98618.78
2022-12-12T08:12:42.036Z,98622.16
2022-12-12T08:15:47.530Z,98618.94
2022-12-12T08:18:51.850Z,98625.47
2022-12-12T08:21:55.869Z,98632.28
2022-12-12T08:24:59.668Z,98630.00
2022-12-12T08:28:03.628Z,98630.16
2022-12-12T08:31:09.091Z,98635.91
2022-12-12T08:34:13.375Z,98628.78
2022-12-12T08:37:17.256Z,98631.72
2022-12-12T08:40:21.564Z,98622.13
2022-12-12T08:43:25.558Z,98631.81
2022-12-12T08:46:31.771Z,98632.88
2022-12-12T08:49:35.730Z,98639.06
2022-12-12T08:52:39.610Z,98633.66
2022-12-12T08:55:43.537Z,98640.41
2022-12-12T08:58:48.033Z,98642.06
2022-12-12T09:01:53.399Z,98646.28
2022-12-12T09:04:57.416Z,98641.00
2022-12-12T09:08:01.268Z,98637.19
2022-12-12T09:11:05.575Z,98631.78
2022-12-12T09:14:09.390Z,98629.69
2022-12-12T09:17:14.669Z,98629.44
2022-12-12T09:20:18.679Z,98625.41
2022-12-12T09:23:23.910Z,98630.44
2022-12-12T09:26:27.869Z,98625.22
2022-12-12T09:29:32.090Z,98619.34
2022-12-12T09:32:37.610Z,98612.84
2022-12-12T09:35:41.469Z,98617.34
2022-12-12T09:38:45.869Z,98620.91
2022-12-12T09:41:49.677Z,98626.28
2022-12-12T09:44:57.911Z,98620.06
2022-12-12T09:48:07.018Z,98611.78
2022-12-12T09:51:12.159Z,98609.56
2022-12-12T09:54:18.132Z,98608.69
2022-12-12T09:57:29.590Z,98602.25
2022-12-12T10:00:38.494Z,98599.16
2022-12-12T10:03:57.776Z,98592.72
2022-12-12T10:07:08.196Z,98591.13
2022-12-12T10:10:23.360Z,98590.59
2022-12-12T10:13:31.097Z,98587.25
2022-12-12T10:16:35.231Z,98587.09
2022-12-12T10:19:49.990Z,98591.94
2022-12-12T10:23:00.956Z,98586.31
2022-12-12T10:26:08.811Z,98585.75
2022-12-12T10:29:15.997Z,98583.06
2022-12-12T10:32:33.689Z,98574.59
2022-12-12T10:35:47.076Z,98566.88
2022-12-12T10:39:09.131Z,98563.25
2022-12-12T10:42:21.736Z,98558.94
2022-12-12T10:45:42.156Z,98552.88
2022-12-12T10:48:47.256Z,98558.94
2022-12-12T10:51:54.138Z,98551.56
2022-12-12T10:55:01.585Z,98543.16
2022-12-12T10:58:06.709Z,98552.06
2022-12-12T11:01:33.038Z,98560.19
2022-12-12T11:04:46.731Z,98555.59
2022-12-12T11:08:03.091Z,98555.13
2022-12-12T11:11:10.011Z,98545.59
2022-12-12T11:14:28.677Z,98541.13
2022-12-12T11:17:35.016Z,98533.25
2022-12-12T11:20:46.810Z,98528.28
2022-12-12T11:23:55.456Z,98520.28
2022-12-12T11:27:02.138Z,98523.75
2022-12-12T11:30:09.335Z,98513.28
2022-12-12T11:33:20.859Z,98508.38
2022-12-12T11:36:29.789Z,98512.66
2022-12-12T11:39:42.998Z,98501.91
2022-12-12T11:42:46.738Z,98506.13
2022-12-12T11:46:04.088Z,98511.34
2022-12-12T11:49:20.258Z,98518.94
2022-12-12T11:52:27.776Z,98521.41
2022-12-12T11:55:39.975Z,98511.69
2022-12-12T11:58:51.950Z,98518.72
2022-12-12T12:02:07.057Z,98523.63
2022-12-12T12:05:22.316Z,98524.97
2022-12-12T12:08:45.376Z,98523.47
2022-12-12T12:12:02.816Z,98518.25
2022-12-12T12:15:29.975Z,98525.53
2022-12-12T12:18:52.695Z,98514.28
2022-12-12T12:22:09.189Z,98511.50
2022-12-12T12:25:34.190Z,98517.31
2022-12-12T12:29:04.329Z,98517.28
2022-12-12T12:32:19.831Z,98525.53
2022-12-12T12:35:31.477Z,98527.75
2022-12-12T12:39:05.139Z,98525.94
2022-12-12T12:42:22.297Z,98529.19
2022-12-12T12:45:38.570Z,98531.06
2022-12-12T12:48:46.051Z,98520.06
2022-12-12T12:51:56.364Z,98523.41
2022-12-12T12:55:02.872Z,98521.25
2022-12-12T12:58:08.357Z,98515.69
2022-12-12T13:01:18.380Z,98510.47
2022-12-12T13:04:26.829Z,98502.00
2022-12-12T13:07:40.708Z,98505.06
2022-12-12T13:10:49.775Z,98505.09
2022-12-12T13:13:56.718Z,98490.25
2022-12-12T13:17:07.251Z,98488.00
2022-12-12T13:20:17.317Z,98493.50
2022-12-12T13:23:37.814Z,98489.34
2022-12-12T13:26:49.977Z,98498.28
2022-12-12T13:30:00.869Z,98495.22
2022-12-12T13:33:17.369Z,98493.59
2022-12-12T13:36:29.341Z,98484.75
2022-12-12T13:39:36.849Z,98475.97
2022-12-12T13:42:55.936Z,98476.72
2022-12-12T13:46:01.277Z,98477.31
2022-12-12T13:49:28.830Z,98467.53
2022-12-12T13:52:35.288Z,98487.59
2022-12-12T13:55:39.889Z,98497.97
2022-12-12T13:58:43.772Z,98490.84
2022-12-12T14:01:48.741Z,98477.88
2022-12-12T14:05:10.956Z,98477.53
2022-12-12T14:08:29.298Z,98470.31
2022-12-12T14:11:37.712Z,98473.03
2022-12-12T14:14:42.977Z,98472.50
2022-12-12T14:17:55.352Z,98464.38
2022-12-12T14:21:03.784Z,98460.59
2022-12-12T14:24:47.802Z,98456.19
2022-12-12T14:28:17.256Z,98458.97
2022-12-12T14:31:21.540Z,98450.88
2022-12-12T14:34:31.947Z,98456.91
2022-12-12T14:37:51.597Z,98443.84
2022-12-12T14:41:00.855Z,98452.75
2022-12-12T14:44:36.077Z,98451.41
2022-12-12T14:47:33.998Z,98452.84
2022-12-12T14:50:38.969Z,98445.44
2022-12-12T14:53:55.630Z,98450.31
2022-12-12T14:57:01.609Z,98464.56
2022-12-12T15:00:06.636Z,98462.41
2022-12-12T15:03:10.816Z,98477.56
2022-12-12T15:06:29.861Z,98485.50
2022-12-12T15:09:36.870Z,98486.09
2022-12-12T15:12:46.029Z,98484.47
2022-12-12T15:15:52.340Z,98477.63
2022-12-12T15:18:57.833Z,98481.09
2022-12-12T15:22:01.976Z,98484.22
2022-12-12T15:25:19.170Z,98481.09
2022-12-12T15:28:26.697Z,98492.06
2022-12-12T15:31:31.023Z,98496.03
2022-12-12T15:34:40.457Z,98494.06
2022-12-12T15:37:44.736Z,98495.41
2022-12-12T15:40:53.217Z,98496.22
2022-12-12T15:43:57.417Z,98484.13
2022-12-12T15:47:01.663Z,98480.31
2022-12-12T15:50:14.705Z,98476.56
2022-12-12T15:53:23.109Z,98479.59
2022-12-12T15:56:30.416Z,98480.03
2022-12-12T15:59:35.369Z,98483.38
2022-12-12T16:02:41.031Z,98487.63
2022-12-12T16:05:45.477Z,98495.56
2022-12-12T16:08:54.412Z,98493.41
2022-12-12T16:12:00.379Z,98494.13
2022-12-12T16:15:20.170Z,98490.25
2022-12-12T16:18:25.775Z,98478.75
2022-12-12T16:21:30.336Z,98473.78
2022-12-12T16:24:34.704Z,98486.50
2022-12-12T16:27:40.269Z,98479.13
2022-12-12T16:30:46.750Z,98490.97
2022-12-12T16:33:50.651Z,98489.78
2022-12-12T16:36:54.510Z,98475.78
2022-12-12T16:39:58.894Z,98461.88
2022-12-12T16:43:10.964Z,98469.25
2022-12-12T16:46:20.584Z,98467.91
2022-12-12T16:49:24.583Z,98468.91
2022-12-12T16:52:28.595Z,98468.81
2022-12-12T16:55:32.920Z,98474.38
2022-12-12T16:58:38.680Z,98462.84
2022-12-12T17:01:42.600Z,98475.16
2022-12-12T17:04:46.777Z,98475.19
2022-12-12T17:07:51.246Z,98475.19
2022-12-12T17:11:10.606Z,98477.63
2022-12-12T17:14:22.430Z,98491.50
2022-12-12T17:17:26.316Z,98493.56
2022-12-12T17:20:37.522Z,98483.31
2022-12-12T17:23:42.336Z,98482.94
2022-12-12T17:26:46.169Z,98475.28
2022-12-12T17:29:51.624Z,98463.34
2022-12-12T17:36:17.450Z,98468.34
2022-12-12T17:39:21.438Z,98481.06
2022-12-12T17:42:25.311Z,98485.22
2022-12-12T17:45:30.848Z,98490.38
2022-12-12T17:48:37.376Z,98505.03
2022-12-12T17:51:41.190Z,98501.38
2022-12-12T17:55:53.154Z,98503.88
2022-12-12T17:58:08.916Z,98521.66
2022-12-12T18:01:17.108Z,98521.22
2022-12-12T18:04:27.389Z,98524.81
2022-12-12T18:07:32.148Z,98532.56
2022-12-12T18:10:38.683Z,98547.66
2022-12-12T18:13:43.741Z,98539.81
2022-12-12T18:16:53.401Z,98549.00
2022-12-12T18:19:57.375Z,98549.63
2022-12-12T18:23:01.222Z,98551.09
2022-12-12T18:26:06.311Z,98551.34
2022-12-12T18:29:13.010Z,98545.75
2022-12-12T18:32:18.377Z,98552.75
2022-12-12T18:35:22.189Z,98558.19
2022-12-12T18:38:26.196Z,98560.81
2022-12-12T18:41:31.895Z,98554.53
2022-12-12T18:44:35.923Z,98545.69
2022-12-12T18:47:41.217Z,98538.66
2022-12-12T18:50:45.196Z,98567.78
2022-12-12T18:53:49.108Z,98584.06
2022-12-12T18:56:53.081Z,98571.13
2022-12-12T18:59:57.916Z,98553.19
2022-12-12T19:03:03.132Z,98563.41
2022-12-12T19:06:07.837Z,98578.94
2022-12-12T19:09:14.808Z,98573.06
2022-12-12T19:12:18.976Z,98552.50
2022-12-12T19:15:22.915Z,98570.47
2022-12-12T19:18:28.180Z,98574.28
2022-12-12T19:21:33.970Z,98578.81
2022-12-12T19:24:41.209Z,98567.13
2022-12-12T19:27:45.500Z,98557.78
2022-12-12T19:30:49.414Z,98558.44
2022-12-12T19:33:55.290Z,98556.59
2022-12-12T19:36:59.489Z,98566.28
2022-12-12T19:40:03.557Z,98581.81
2022-12-12T19:43:07.497Z,98583.88
2022-12-12T19:46:13.551Z,98582.19
2022-12-12T19:49:19.055Z,98585.78
2022-12-12T19:52:22.996Z,98590.88
2022-12-12T19:55:27.009Z,98591.47
2022-12-12T19:58:35.143Z,98599.13
2022-12-12T20:01:43.264Z,98595.66
2022-12-12T20:04:48.829Z,98603.88
2022-12-12T20:07:52.738Z,98603.66
2022-12-12T20:10:56.535Z,98610.03
2022-12-12T20:14:01.884Z,98612.59
2022-12-12T20:17:06.316Z,98604.09
2022-12-12T20:20:12.738Z,98614.09
2022-12-12T20:23:16.770Z,98620.75
2022-12-12T20:26:22.629Z,98622.59
2022-12-12T20:29:26.635Z,98630.03
2022-12-12T20:32:30.835Z,98632.50
2022-12-12T20:35:37.277Z,98637.44
2022-12-12T20:38:41.590Z,98643.34
2022-12-12T20:41:46.409Z,98645.28
2022-12-12T20:44:51.056Z,98661.41
2022-12-12T20:47:55.032Z,98657.03
2022-12-12T20:51:01.169Z,98665.50
2022-12-12T20:54:07.053Z,98680.50
2022-12-12T20:57:11.029Z,98688.66
2022-12-12T21:00:15.463Z,98701.34
2022-12-12T21:03:19.631Z,98702.81
2022-12-12T21:06:27.008Z,98706.56
2022-12-12T21:09:30.830Z,98710.47
2022-12-12T21:12:34.936Z,98715.47
2022-12-12T21:15:39.257Z,98709.19
2022-12-12T21:18:43.377Z,98713.09
2022-12-12T21:21:48.668Z,98718.75
2022-12-12T21:24:52.637Z,98724.22
2022-12-12T21:27:57.409Z,98733.31
2022-12-12T21:31:01.858Z,98753.22
2022-12-12T21:34:06.978Z,98761.31
2022-12-12T21:37:13.978Z,98775.50
2022-12-12T21:40:17.870Z,98774.50
2022-12-12T21:43:22.089Z,98785.25
2022-12-12T21:46:27.645Z,98792.53
2022-12-12T21:49:32.289Z,98784.50
2022-12-12T21:52:37.644Z,98784.97
2022-12-12T21:55:42.289Z,98785.78
2022-12-12T21:58:47.794Z,98794.94
2022-12-12T22:01:52.033Z,98801.63
2022-12-12T22:04:55.929Z,98799.06
2022-12-12T22:08:01.408Z,98804.81
2022-12-12T22:11:05.564Z,98798.16
2022-12-12T22:14:10.829Z,98812.72
2022-12-12T22:17:14.489Z,98824.84
2022-12-12T22:20:18.477Z,98818.69
2022-12-12T22:23:24.145Z,98819.06
2022-12-12T22:26:30.296Z,98830.50
2022-12-12T22:29:34.097Z,98832.22
2022-12-12T22:32:37.911Z,98827.78
2022-12-12T22:35:41.870Z,98830.47
2022-12-12T22:38:47.144Z,98831.22
2022-12-12T22:41:51.679Z,98822.34
2022-12-12T22:44:55.569Z,98820.31
2022-12-12T22:47:59.377Z,98817.81
2022-12-12T22:51:13.650Z,98818.41
2022-12-12T22:54:19.658Z,98822.84
2022-12-12T22:57:23.693Z,98814.09
2022-12-12T23:00:27.696Z,98813.28
2022-12-12T23:03:32.737Z,98813.41
2022-12-12T23:06:37.490Z,98826.66
2022-12-12T23:09:52.709Z,98822.19
2022-12-12T23:12:56.629Z,98828.28
2022-12-12T23:16:00.621Z,98834.84
2022-12-12T23:19:06.597Z,98833.69
2022-12-12T23:22:10.790Z,98836.81
2022-12-12T23:25:16.467Z,98829.63
2022-12-12T23:28:20.512Z,98844.97
2022-12-12T23:31:27.313Z,98841.25
2022-12-12T23:34:32.269Z,98835.25
2022-12-12T23:37:36.117Z,98837.81
2022-12-12T23:40:41.525Z,98842.38
2022-12-12T23:43:46.456Z,98845.75
2022-12-12T23:46:51.516Z,98849.50
2022-12-12T23:49:55.357Z,98852.09
2022-12-12T23:52:59.776Z,98849.34
2022-12-12T23:56:06.679Z,98843.72
2022-12-12T23:59:16.881Z,98847.63
